KCBF/CBF METAR and TAF weather

Enter ICAO airport designator
Station Type Date Time Source
KCBF METAR 2021/05/14 23:35 UTC NOAA

KCBF 142335Z AUTO 22004KT 10SM SCT046 SCT055 SCT075 20/11 A3004 RMK AO2


Station Type Date Time Source
KCBF Decoded METAR 2021/05/14 23:35 UTC NOAA

Council Bluffs, IA, United States (KCBF) 41-16N 095-46W
May 14, 2021 - 07:35 PM EDT / 2021.05.14 2335 UTC
Wind: from the SW (220 degrees) at 5 MPH (4 KT):0
Visibility: 10 mile(s):0
Sky conditions: partly cloudy
Temperature: 68 F (20 C)
Dew Point: 51 F (11 C)
Relative Humidity: 56%
Pressure (altimeter): 30.04 in. Hg (1017 hPa)
ob: KCBF 142335Z AUTO 22004KT 10SM SCT046 SCT055 SCT075 20/11 A3004 RMK AO2
cycle: 23

Station Type Date Time Source
KCBF TAF UTC NOAA

Error!

Example: see airport list